New York, NY (10098)

10:54 PM EST on December 24, 2014 (GMT -0500)
Cobble Hill | Change Station
CLOSE
Current Station
Personal Weather Station
Location: New York, NY
Elevation: 66 ft
Nearby Weather Stations

Elev 66 ft 40.69 °N, 74.00 °W | Updated 15 seconds ago

Overcast
Overcast
57.7 °F
Feels Like 57.7 °F
N
0.0
Wind Variable Wind from SE
Gusts 0.0 mph

Today
High -- | Low -- °F
--% Chance of Precip.
Yesterday
High -- | Low -- °F
Precip. -- in
7:17 AM 4:33 PM
Waxing Crescent, 13% visible
Pressure 29.56 in
Visibility 2.5 miles
Clouds Overcast 500 ft
Dew Point 58 °F
Humidity 99%
Rainfall 0.58 in
Snow Depth Not available.
UV 0 out of 12
Pollen .10 out of 12
Air Quality Not available.
Flu Activity Not available.
METAR KNYC 250348Z AUTO 00000KT 2 1/2SM BR OVC005 13/13 A2959 RMK AO2 VIS 1 3/4V3 CIG 002V008 SLP010 T01330133 $

More Conditions Fewer Conditions

Pressure 29.56 in
Visibility 2.5 miles
Clouds Overcast 500 ft
Dew Point 58 °F
Humidity 99%
Rainfall 0.58 in
Snow Depth Not available.
UV 0 out of 12
Pollen .10 out of 12
Air Quality Not available.
Flu Activity Not available.
METAR KNYC 250348Z AUTO 00000KT 2 1/2SM BR OVC005 13/13 A2959 RMK AO2 VIS 1 3/4V3 CIG 002V008 SLP010 T01330133 $

More Conditions Fewer Conditions

10-Day Weather Forecast

Almanac

Astronomy

Dec. 24, 2014 Rise Set
Actual Time
Civil Twilight
Nautical Twilight
Astronomical Twilight
Moon
Length of Visible Light
Length of Day
Tomorrow will be .
, % of the Moon is Illuminated

Today's Extremes

State Highs State Lows

Community

WunderPhotos

Upload Photos

1,780,225 photos uploaded!

WunderBlogs® & News

Nearby

Air Quality

  Air Quality AQ Index Pollutant
Not available.

Snow Depth

Station Depth Elevation

Earthquake Activity

City Distance Mag. Time & Date
Minimum magnitude displayed is 2.5.

Coastal Water Temperatures

Place Temperature

Nearby Weather Stations